createdAt,value
2022-11-21T00:02:02.056Z,-1.70
2022-11-21T00:04:31.053Z,-1.73
2022-11-21T00:06:58.909Z,-1.63
2022-11-21T00:09:26.818Z,-1.60
2022-11-21T00:11:54.604Z,-1.61
2022-11-21T00:14:22.412Z,-1.58
2022-11-21T00:16:57.194Z,-1.57
2022-11-21T00:19:25.907Z,-1.64
2022-11-21T00:21:55.962Z,-1.77
2022-11-21T00:24:23.756Z,-1.87
2022-11-21T00:26:51.579Z,-1.93
2022-11-21T00:29:20.892Z,-1.92
2022-11-21T00:31:49.956Z,-1.88
2022-11-21T00:34:17.907Z,-1.88
2022-11-21T00:36:45.722Z,-1.88
2022-11-21T00:39:13.487Z,-1.99
2022-11-21T00:41:42.151Z,-2.10
2022-11-21T00:44:10.184Z,-2.19
2022-11-21T00:46:38.252Z,-2.25
2022-11-21T00:49:06.063Z,-2.30
2022-11-21T00:51:33.986Z,-2.35
2022-11-21T00:54:02.056Z,-2.41
2022-11-21T00:56:29.833Z,-2.37
2022-11-21T00:58:57.684Z,-2.34
2022-11-21T01:01:25.594Z,-2.36
2022-11-21T01:03:53.412Z,-2.33
2022-11-21T01:06:21.181Z,-2.32
2022-11-21T01:08:48.948Z,-2.31
2022-11-21T01:11:20.190Z,-2.28
2022-11-21T01:13:49.004Z,-2.20
2022-11-21T01:16:20.417Z,-2.17
2022-11-21T01:18:49.109Z,-2.08
2022-11-21T01:21:23.631Z,-1.94
2022-11-21T01:23:51.930Z,-1.82
2022-11-21T01:26:22.932Z,-1.67
2022-11-21T01:28:51.220Z,-1.49
2022-11-21T01:31:20.669Z,-1.40
2022-11-21T01:33:49.572Z,-1.28
2022-11-21T01:36:21.762Z,-1.15
2022-11-21T01:38:52.962Z,-1.02
2022-11-21T01:41:28.470Z,-0.91
2022-11-21T01:43:56.400Z,-0.87
2022-11-21T01:46:25.215Z,-0.79
2022-11-21T01:48:59.681Z,-0.71
2022-11-21T01:51:48.344Z,-0.65
2022-11-21T01:54:25.046Z,-0.54
2022-11-21T01:57:08.362Z,-0.43
2022-11-21T01:59:48.363Z,-0.45
2022-11-21T02:02:20.841Z,-0.39
2022-11-21T02:04:50.172Z,-0.25
2022-11-21T02:07:21.604Z,-0.20
2022-11-21T02:09:57.917Z,-0.25
2022-11-21T02:12:39.837Z,-0.30
2022-11-21T02:15:08.398Z,-0.28
2022-11-21T02:17:36.307Z,-0.13
2022-11-21T02:20:10.370Z,-0.17
2022-11-21T02:22:49.352Z,-0.14
2022-11-21T02:25:46.639Z,-0.26
2022-11-21T02:28:17.061Z,-0.12
2022-11-21T02:30:45.344Z,-0.11
2022-11-21T02:33:13.701Z,-0.18
2022-11-21T02:35:42.549Z,-0.18
2022-11-21T02:38:33.468Z,-0.02
2022-11-21T02:41:15.681Z,0.06
2022-11-21T02:43:55.599Z,0.13
2022-11-21T02:46:23.554Z,0.20
2022-11-21T02:48:51.314Z,0.31
2022-11-21T02:51:19.188Z,0.28
2022-11-21T02:53:47.077Z,0.29
2022-11-21T02:56:15.032Z,0.44
2022-11-21T02:58:43.520Z,0.55
2022-11-21T03:01:11.518Z,0.59
2022-11-21T03:03:39.422Z,0.64
2022-11-21T03:06:07.291Z,0.66
2022-11-21T03:08:35.147Z,0.71
2022-11-21T03:11:03.017Z,0.84
2022-11-21T03:13:30.904Z,0.89
2022-11-21T03:15:59.713Z,0.93
2022-11-21T03:18:27.690Z,0.82
2022-11-21T03:20:55.539Z,0.80
2022-11-21T03:23:23.399Z,0.87
2022-11-21T03:25:51.217Z,0.96
2022-11-21T03:28:19.497Z,0.91
2022-11-21T03:30:47.432Z,0.81
2022-11-21T03:33:15.257Z,0.83
2022-11-21T03:35:43.031Z,0.90
2022-11-21T03:38:10.763Z,0.97
2022-11-21T03:40:38.645Z,0.99
2022-11-21T03:43:07.789Z,1.01
2022-11-21T03:45:35.507Z,1.03
2022-11-21T03:48:03.500Z,0.97
2022-11-21T03:50:31.230Z,0.95
2022-11-21T03:52:58.923Z,1.00
2022-11-21T03:55:27.302Z,1.01
2022-11-21T03:57:55.007Z,1.10
2022-11-21T04:00:23.614Z,1.12
2022-11-21T04:02:51.400Z,1.17
2022-11-21T04:05:19.213Z,1.17
2022-11-21T04:07:47.007Z,1.04
2022-11-21T04:10:15.071Z,0.92
2022-11-21T04:12:45.232Z,0.83
2022-11-21T04:15:14.009Z,0.80
2022-11-21T04:17:42.876Z,0.91
2022-11-21T04:20:11.262Z,0.99
2022-11-21T04:22:39.073Z,1.15
2022-11-21T04:25:07.465Z,1.23
2022-11-21T04:27:35.204Z,1.28
2022-11-21T04:30:03.290Z,1.30
2022-11-21T04:32:31.007Z,1.29
2022-11-21T04:34:58.665Z,1.28
2022-11-21T04:37:26.412Z,1.27
2022-11-21T04:39:56.633Z,1.24
2022-11-21T04:42:24.596Z,1.32
2022-11-21T04:44:52.296Z,1.37
2022-11-21T04:47:20.009Z,1.34
2022-11-21T04:49:47.890Z,1.26
2022-11-21T04:52:15.617Z,1.19
2022-11-21T04:54:43.454Z,1.25
2022-11-21T04:57:11.228Z,1.24
2022-11-21T04:59:38.928Z,1.20
2022-11-21T05:02:06.588Z,1.09
2022-11-21T05:04:34.950Z,1.04
2022-11-21T05:07:02.764Z,0.89
2022-11-21T05:09:30.488Z,0.80
2022-11-21T05:12:16.656Z,0.70
2022-11-21T05:14:44.579Z,0.65
2022-11-21T05:17:12.369Z,0.62
2022-11-21T05:19:40.157Z,0.59
2022-11-21T05:22:08.238Z,0.63
2022-11-21T05:24:36.377Z,0.61
2022-11-21T05:27:05.543Z,0.64
2022-11-21T05:29:33.692Z,0.67
2022-11-21T05:32:01.573Z,0.74
2022-11-21T05:34:29.936Z,0.64
2022-11-21T05:37:00.692Z,0.58
2022-11-21T05:39:29.118Z,0.54
2022-11-21T05:42:02.504Z,0.50
2022-11-21T05:44:31.280Z,0.51
2022-11-21T05:46:59.564Z,0.54
2022-11-21T05:49:27.772Z,0.67
2022-11-21T05:51:55.762Z,0.71
2022-11-21T05:54:24.368Z,0.64
2022-11-21T05:56:52.309Z,0.62
2022-11-21T05:59:20.760Z,0.63
2022-11-21T06:02:07.774Z,0.64
2022-11-21T06:04:35.825Z,0.67
2022-11-21T06:07:05.900Z,0.58
2022-11-21T06:09:33.924Z,0.55
2022-11-21T06:12:01.792Z,0.50
2022-11-21T06:14:29.737Z,0.50
2022-11-21T06:16:57.861Z,0.50
2022-11-21T06:19:25.788Z,0.52
2022-11-21T06:21:53.544Z,0.57
2022-11-21T06:24:22.497Z,0.52
2022-11-21T06:26:50.436Z,0.45
2022-11-21T06:29:18.252Z,0.37
2022-11-21T06:31:45.951Z,0.46
2022-11-21T06:34:13.752Z,0.48
2022-11-21T06:36:41.568Z,0.56
2022-11-21T06:39:09.352Z,0.66
2022-11-21T06:41:37.036Z,0.75
2022-11-21T06:44:04.957Z,0.85
2022-11-21T06:46:32.689Z,0.83
2022-11-21T06:49:00.623Z,0.85
2022-11-21T06:51:28.533Z,0.84
2022-11-21T06:53:59.494Z,0.87
2022-11-21T06:56:30.051Z,0.86
2022-11-21T06:58:58.749Z,0.95
2022-11-21T07:01:26.870Z,1.01
2022-11-21T07:03:55.118Z,1.01
2022-11-21T07:06:24.771Z,0.94
2022-11-21T07:09:25.205Z,0.83
2022-11-21T07:11:46.995Z,0.95
2022-11-21T07:14:15.235Z,0.87
2022-11-21T07:16:42.904Z,0.77
2022-11-21T07:19:10.755Z,0.80
2022-11-21T07:21:38.697Z,0.76
2022-11-21T07:24:06.633Z,0.78
2022-11-21T07:26:34.372Z,0.77
2022-11-21T07:29:02.469Z,0.74
2022-11-21T07:31:30.223Z,0.72
2022-11-21T07:33:58.239Z,0.81
2022-11-21T07:36:26.149Z,0.86
2022-11-21T07:38:53.879Z,0.82
2022-11-21T07:41:21.647Z,0.71
2022-11-21T07:43:49.419Z,0.75
2022-11-21T07:46:19.586Z,0.96
2022-11-21T07:48:47.629Z,0.99
2022-11-21T07:51:16.181Z,1.07
2022-11-21T07:53:44.208Z,1.06
2022-11-21T07:56:15.380Z,1.07
2022-11-21T07:58:43.498Z,1.17
2022-11-21T08:01:11.553Z,1.22
2022-11-21T08:03:39.435Z,1.28
2022-11-21T08:06:07.824Z,1.15
2022-11-21T08:08:35.726Z,1.11
2022-11-21T08:11:07.652Z,0.98
2022-11-21T08:13:35.548Z,1.14
2022-11-21T08:16:04.390Z,1.07
2022-11-21T08:18:34.106Z,1.12
2022-11-21T08:21:03.647Z,1.27
2022-11-21T08:23:32.458Z,1.23
2022-11-21T08:26:00.459Z,1.25
2022-11-21T08:28:28.357Z,1.42
2022-11-21T08:30:56.314Z,1.52
2022-11-21T08:33:24.137Z,1.58
2022-11-21T08:35:51.969Z,1.58
2022-11-21T08:38:19.939Z,1.67
2022-11-21T08:40:47.668Z,1.61
2022-11-21T08:43:15.516Z,1.70
2022-11-21T08:45:43.788Z,1.92
2022-11-21T08:48:11.915Z,1.91
2022-11-21T08:50:39.995Z,1.97
2022-11-21T08:53:07.731Z,2.07
2022-11-21T08:55:35.745Z,2.15
2022-11-21T08:58:03.818Z,2.13
2022-11-21T09:00:31.598Z,2.26
2022-11-21T09:02:59.383Z,2.14
2022-11-21T09:05:27.290Z,2.08
2022-11-21T09:07:58.483Z,2.25
2022-11-21T09:10:27.138Z,2.06
2022-11-21T09:12:59.549Z,2.15
2022-11-21T09:15:45.998Z,2.29
2022-11-21T09:18:14.552Z,2.48
2022-11-21T09:20:44.883Z,2.54
2022-11-21T09:23:16.752Z,2.38
2022-11-21T09:25:45.400Z,2.25
2022-11-21T09:28:14.030Z,2.34
2022-11-21T09:30:42.468Z,2.42
2022-11-21T09:33:13.181Z,2.54
2022-11-21T09:35:41.205Z,2.71
2022-11-21T09:38:09.742Z,2.62
2022-11-21T09:40:44.823Z,2.60
2022-11-21T09:43:41.710Z,2.47
2022-11-21T09:46:13.049Z,2.51
2022-11-21T09:49:05.099Z,2.81
2022-11-21T09:51:37.547Z,3.05
2022-11-21T09:54:17.466Z,3.21
2022-11-21T09:56:47.699Z,3.25
2022-11-21T09:59:35.542Z,3.02
2022-11-21T10:02:15.891Z,3.04
2022-11-21T10:04:49.012Z,3.11
2022-11-21T10:07:19.455Z,3.03
2022-11-21T10:09:59.475Z,2.99
2022-11-21T10:12:59.132Z,2.75
2022-11-21T10:15:26.963Z,2.71
2022-11-21T10:18:24.306Z,2.64
2022-11-21T10:21:13.719Z,2.93
2022-11-21T10:24:26.884Z,3.12
2022-11-21T10:27:00.934Z,3.28
2022-11-21T10:29:35.757Z,3.27
2022-11-21T10:32:22.503Z,3.22
2022-11-21T10:34:53.259Z,2.97
2022-11-21T10:37:33.096Z,2.85
2022-11-21T10:40:28.681Z,2.85
2022-11-21T10:43:22.093Z,2.97
2022-11-21T10:45:50.688Z,3.20
2022-11-21T10:48:19.125Z,3.14
2022-11-21T10:51:06.200Z,3.19
2022-11-21T10:53:52.799Z,3.02
2022-11-21T10:56:23.275Z,2.94
2022-11-21T10:58:53.740Z,3.01
2022-11-21T11:01:34.152Z,3.08
2022-11-21T11:07:20.384Z,3.39
2022-11-21T11:09:48.575Z,3.42
2022-11-21T11:12:50.353Z,3.36
2022-11-21T11:15:24.534Z,3.41
2022-11-21T11:17:59.156Z,3.37
2022-11-21T11:20:41.731Z,3.43
2022-11-21T11:23:27.941Z,3.41
2022-11-21T11:26:39.297Z,3.34
2022-11-21T11:29:17.804Z,3.15
2022-11-21T11:31:55.519Z,3.14
2022-11-21T11:34:26.923Z,3.18
2022-11-21T11:37:11.126Z,3.23
2022-11-21T11:40:03.773Z,3.13
2022-11-21T11:43:12.407Z,3.22
2022-11-21T11:46:10.457Z,3.29
2022-11-21T11:49:11.030Z,3.24
2022-11-21T11:51:41.433Z,3.42
2022-11-21T11:54:23.609Z,3.70
2022-11-21T11:56:51.816Z,3.99
2022-11-21T11:59:35.172Z,4.06
2022-11-21T12:02:24.623Z,3.84
2022-11-21T12:05:20.778Z,3.74
2022-11-21T12:08:40.079Z,3.84
2022-11-21T12:11:15.726Z,4.05
2022-11-21T12:13:44.282Z,4.14
2022-11-21T12:16:16.377Z,3.78
2022-11-21T12:18:54.130Z,3.72
2022-11-21T12:21:23.648Z,3.94
2022-11-21T12:23:56.898Z,3.87
2022-11-21T12:26:38.105Z,3.83
2022-11-21T12:29:11.067Z,3.57
2022-11-21T12:31:47.249Z,3.59
2022-11-21T12:34:36.715Z,3.31
2022-11-21T12:37:10.233Z,3.31
2022-11-21T12:40:08.967Z,3.44
2022-11-21T12:42:50.802Z,3.49
2022-11-21T12:45:18.792Z,3.51
2022-11-21T12:48:29.748Z,3.60
2022-11-21T12:51:34.586Z,3.31
2022-11-21T12:54:30.602Z,3.23
2022-11-21T12:57:14.025Z,3.32
2022-11-21T12:59:52.294Z,3.26
2022-11-21T13:02:57.697Z,3.32
2022-11-21T13:05:30.575Z,3.30
2022-11-21T13:08:03.782Z,3.19
2022-11-21T13:10:32.435Z,3.20
2022-11-21T13:13:20.371Z,3.13
2022-11-21T13:16:10.635Z,3.13
2022-11-21T13:18:48.943Z,3.27
2022-11-21T13:21:41.736Z,3.37
2022-11-21T13:24:10.296Z,3.15
2022-11-21T13:26:38.561Z,2.99
2022-11-21T13:29:10.245Z,2.75
2022-11-21T13:31:40.877Z,2.69
2022-11-21T13:34:32.304Z,2.62
2022-11-21T13:37:00.469Z,2.70
2022-11-21T13:39:31.606Z,2.71
2022-11-21T13:42:23.068Z,2.70
2022-11-21T13:44:51.389Z,2.49
2022-11-21T13:47:26.405Z,2.46
2022-11-21T13:50:25.293Z,2.60
2022-11-21T13:53:02.757Z,2.26
2022-11-21T13:55:47.044Z,2.27
2022-11-21T13:58:29.800Z,2.35
2022-11-21T14:01:19.906Z,2.60
2022-11-21T14:04:21.301Z,2.54
2022-11-21T14:06:49.664Z,2.42
2022-11-21T14:09:49.329Z,2.37
2022-11-21T14:12:33.864Z,2.44
2022-11-21T14:15:03.924Z,2.54
2022-11-21T14:17:47.304Z,2.50
2022-11-21T14:20:21.163Z,2.50
2022-11-21T14:22:59.050Z,2.23
2022-11-21T14:26:11.999Z,2.19
2022-11-21T14:28:39.817Z,2.10
2022-11-21T14:31:10.707Z,2.21
2022-11-21T14:33:41.330Z,2.31
2022-11-21T14:36:22.335Z,2.25
2022-11-21T14:39:35.214Z,2.10
2022-11-21T14:41:52.702Z,2.06
2022-11-21T14:44:22.023Z,2.13
2022-11-21T14:46:51.798Z,2.29
2022-11-21T14:49:22.405Z,2.33
2022-11-21T14:51:50.440Z,2.26
2022-11-21T14:54:25.998Z,2.21
2022-11-21T14:57:05.172Z,2.12
2022-11-21T14:59:41.974Z,2.24
2022-11-21T15:02:19.872Z,2.25
2022-11-21T15:04:54.053Z,2.21
2022-11-21T15:07:36.287Z,2.30
2022-11-21T15:13:16.156Z,2.39
2022-11-21T15:15:51.469Z,2.29
2022-11-21T15:18:27.786Z,2.29
2022-11-21T15:21:00.447Z,2.33
2022-11-21T15:23:34.290Z,2.35
2022-11-21T15:26:02.621Z,2.22
2022-11-21T15:28:31.910Z,2.25
2022-11-21T15:31:19.924Z,2.31
2022-11-21T15:34:19.637Z,2.26
2022-11-21T15:37:03.879Z,2.33
2022-11-21T15:39:33.543Z,2.41
2022-11-21T15:42:32.644Z,2.42
2022-11-21T15:45:03.568Z,2.39
2022-11-21T15:47:32.034Z,2.51
2022-11-21T15:50:00.356Z,2.57
2022-11-21T15:52:29.612Z,2.58
2022-11-21T15:55:01.472Z,2.52
2022-11-21T15:57:29.636Z,2.44
2022-11-21T15:59:57.873Z,2.38
2022-11-21T16:02:28.554Z,2.27
2022-11-21T16:04:56.688Z,2.36
2022-11-21T16:07:24.821Z,2.35
2022-11-21T16:09:53.154Z,2.48
2022-11-21T16:12:21.598Z,2.29
2022-11-21T16:14:49.653Z,2.14
2022-11-21T16:17:17.859Z,2.23
2022-11-21T16:19:46.144Z,2.21
2022-11-21T16:22:16.948Z,2.18
2022-11-21T16:24:45.072Z,2.19
2022-11-21T16:27:13.749Z,2.18
2022-11-21T16:29:47.710Z,2.12
2022-11-21T16:32:16.931Z,1.93
2022-11-21T16:34:45.353Z,2.00
2022-11-21T16:37:14.477Z,1.93
2022-11-21T16:39:42.459Z,1.94
2022-11-21T16:42:11.633Z,1.97
2022-11-21T16:44:40.155Z,2.11
2022-11-21T16:47:08.806Z,2.07
2022-11-21T16:49:43.059Z,2.19
2022-11-21T16:52:11.808Z,2.35
2022-11-21T16:54:40.938Z,2.51
2022-11-21T16:57:10.164Z,2.54
2022-11-21T16:59:38.485Z,2.49
2022-11-21T17:02:07.497Z,2.40
2022-11-21T17:04:39.790Z,2.39
2022-11-21T17:07:08.241Z,2.31
2022-11-21T17:09:36.676Z,2.23
2022-11-21T17:12:05.160Z,2.27
2022-11-21T17:14:34.149Z,2.28
2022-11-21T17:17:02.683Z,2.44
2022-11-21T17:19:31.033Z,2.54
2022-11-21T17:22:00.381Z,2.37
2022-11-21T17:24:29.251Z,2.18
2022-11-21T17:27:01.172Z,2.14
2022-11-21T17:29:31.414Z,2.29
2022-11-21T17:31:59.906Z,2.14
2022-11-21T17:34:33.067Z,2.22
2022-11-21T17:37:02.071Z,2.28
2022-11-21T17:39:30.575Z,2.30
2022-11-21T17:42:00.154Z,2.39
2022-11-21T17:44:28.991Z,2.32
2022-11-21T17:46:59.530Z,2.44
2022-11-21T17:49:30.669Z,2.53
2022-11-21T17:51:59.484Z,2.56
2022-11-21T17:54:28.039Z,2.56
2022-11-21T17:56:57.243Z,2.56
2022-11-21T17:59:30.723Z,2.55
2022-11-21T18:02:00.810Z,2.60
2022-11-21T18:04:34.890Z,2.73
2022-11-21T18:07:03.921Z,2.68
2022-11-21T18:09:32.938Z,2.60
2022-11-21T18:12:01.589Z,2.62
2022-11-21T18:14:30.014Z,2.78
2022-11-21T18:16:58.041Z,2.77
2022-11-21T18:19:26.978Z,2.88
2022-11-21T18:21:55.880Z,3.02
2022-11-21T18:24:24.272Z,2.99
2022-11-21T18:26:53.280Z,3.11
2022-11-21T18:29:38.463Z,3.17
2022-11-21T18:32:08.440Z,3.07
2022-11-21T18:34:36.538Z,3.02
2022-11-21T18:37:07.085Z,2.89
2022-11-21T18:39:36.980Z,2.82
2022-11-21T18:42:06.605Z,2.67
2022-11-21T18:44:35.489Z,2.30
2022-11-21T18:47:19.407Z,2.22
2022-11-21T18:49:48.851Z,2.31
2022-11-21T18:52:16.930Z,2.44
2022-11-21T18:54:45.391Z,2.40
2022-11-21T18:57:13.686Z,2.40
2022-11-21T18:59:42.232Z,2.42
2022-11-21T19:02:10.887Z,2.50
2022-11-21T19:04:40.126Z,2.51
2022-11-21T19:07:08.760Z,2.51
2022-11-21T19:09:38.412Z,2.50
2022-11-21T19:12:07.033Z,2.22
2022-11-21T19:14:35.988Z,2.02
2022-11-21T19:17:04.517Z,2.00
2022-11-21T19:19:34.720Z,2.20
2022-11-21T19:22:06.164Z,2.37
2022-11-21T19:24:34.709Z,2.51
2022-11-21T19:27:03.937Z,2.57
2022-11-21T19:29:33.514Z,2.62
2022-11-21T19:32:02.230Z,2.61
2022-11-21T19:34:31.063Z,2.52
2022-11-21T19:36:59.735Z,2.63
2022-11-21T19:39:29.913Z,2.79
2022-11-21T19:41:59.528Z,2.82
2022-11-21T19:44:28.781Z,2.90
2022-11-21T19:46:56.769Z,2.85
2022-11-21T19:49:25.183Z,2.64
2022-11-21T19:51:55.239Z,2.42
2022-11-21T19:54:23.494Z,2.25
2022-11-21T19:56:53.045Z,2.28
2022-11-21T19:59:22.717Z,2.44
2022-11-21T20:01:53.283Z,2.46
2022-11-21T20:04:22.529Z,2.49
2022-11-21T20:06:51.069Z,2.42
2022-11-21T20:09:24.606Z,2.41
2022-11-21T20:11:54.197Z,2.51
2022-11-21T20:14:23.186Z,2.52
2022-11-21T20:16:53.363Z,2.74
2022-11-21T20:19:24.785Z,2.82
2022-11-21T20:21:55.154Z,2.88
2022-11-21T20:24:23.346Z,2.66
2022-11-21T20:26:54.150Z,2.46
2022-11-21T20:29:22.615Z,2.28
2022-11-21T20:31:51.192Z,2.30
2022-11-21T20:34:19.575Z,2.37
2022-11-21T20:36:48.085Z,2.43
2022-11-21T20:39:18.375Z,2.50
2022-11-21T20:41:47.194Z,2.50
2022-11-21T20:45:20.166Z,2.60
2022-11-21T20:47:12.442Z,2.54
2022-11-21T20:49:40.794Z,2.48
2022-11-21T20:54:58.510Z,2.40
2022-11-21T20:57:27.858Z,2.33
2022-11-21T20:59:57.073Z,2.32
2022-11-21T21:02:26.588Z,2.25
2022-11-21T21:04:55.254Z,2.29
2022-11-21T21:07:24.006Z,2.37
2022-11-21T21:09:53.673Z,2.50
2022-11-21T21:12:24.086Z,2.54
2022-11-21T21:14:52.011Z,2.45
2022-11-21T21:17:20.618Z,2.54
2022-11-21T21:19:49.073Z,2.62
2022-11-21T21:22:17.584Z,2.65
2022-11-21T21:24:46.222Z,2.62
2022-11-21T21:27:14.858Z,2.70
2022-11-21T21:29:43.554Z,2.68
2022-11-21T21:32:11.802Z,2.59
2022-11-21T21:34:41.284Z,2.62
2022-11-21T21:37:11.001Z,2.67
2022-11-21T21:39:39.630Z,2.68
2022-11-21T21:42:08.061Z,2.65
2022-11-21T21:44:39.344Z,2.61
2022-11-21T21:47:11.230Z,2.59
2022-11-21T21:49:39.357Z,2.34
2022-11-21T21:52:07.886Z,2.47
2022-11-21T21:54:36.195Z,2.37
2022-11-21T21:57:04.495Z,2.36
2022-11-21T21:59:35.947Z,2.08
2022-11-21T22:02:04.645Z,2.05
2022-11-21T22:04:34.086Z,2.13
2022-11-21T22:07:05.541Z,2.10
2022-11-21T22:09:34.229Z,2.03
2022-11-21T22:12:02.721Z,2.07
2022-11-21T22:14:31.936Z,2.05
2022-11-21T22:17:00.342Z,1.91
2022-11-21T22:19:29.654Z,1.79
2022-11-21T22:21:58.065Z,1.55
2022-11-21T22:24:28.346Z,1.58
2022-11-21T22:26:56.624Z,1.53
2022-11-21T22:29:24.827Z,1.61
2022-11-21T22:31:53.411Z,1.54
2022-11-21T22:34:22.402Z,1.55
2022-11-21T22:36:50.367Z,1.47
2022-11-21T22:39:18.898Z,1.45
2022-11-21T22:41:47.037Z,1.56
2022-11-21T22:44:15.882Z,1.62
2022-11-21T22:46:44.036Z,1.63
2022-11-21T22:49:12.108Z,1.68
2022-11-21T22:51:40.144Z,1.73
2022-11-21T22:54:07.995Z,1.62
2022-11-21T22:56:35.757Z,1.55
2022-11-21T22:59:03.494Z,1.59
2022-11-21T23:01:33.328Z,1.73
2022-11-21T23:04:01.572Z,1.52
2022-11-21T23:06:29.877Z,1.41
2022-11-21T23:08:58.038Z,1.51
2022-11-21T23:11:28.422Z,1.48
2022-11-21T23:13:56.828Z,1.58
2022-11-21T23:16:26.052Z,1.64
2022-11-21T23:18:55.533Z,1.58
2022-11-21T23:21:23.742Z,1.66
2022-11-21T23:23:51.865Z,1.61
2022-11-21T23:26:20.392Z,1.60
2022-11-21T23:28:48.519Z,1.56
2022-11-21T23:31:17.187Z,1.56
2022-11-21T23:33:45.476Z,1.77
2022-11-21T23:36:13.409Z,1.58
2022-11-21T23:38:41.384Z,1.67
2022-11-21T23:41:09.216Z,1.67
2022-11-21T23:43:36.998Z,1.80
2022-11-21T23:46:04.772Z,1.91
2022-11-21T23:48:35.505Z,1.88
2022-11-21T23:51:03.246Z,1.98
2022-11-21T23:53:33.352Z,2.05
2022-11-21T23:56:01.237Z,2.13
2022-11-21T23:58:28.987Z,2.09
